Time;durP1;ratioP1;P1;durP2;ratioP2;P2;SDS_P1;SDS_P2;PMS_P1;PMS_P2;Temp;Humidity;BMP_temperature;BMP_pressure;BME280_temperature;BME280_humidity;BME280_pressure;Samples;Min_cycle;Max_cycle;Signal;HPM_P1;HPM_P2
2023/07/27 00:02:27;;;;;;;18.85;2.75;;;;;;;21.55;100.00;99141.81;5090059;28;20202;-68
2023/07/27 00:04:54;;;;;;;15.90;2.35;;;;;;;21.48;100.00;99143.00;5090211;28;20202;-68
2023/07/27 00:07:21;;;;;;;20.35;2.85;;;;;;;21.35;100.00;99126.00;5090156;28;20198;-69
2023/07/27 00:09:48;;;;;;;18.75;2.75;;;;;;;21.54;100.00;99145.38;5090780;28;20263;-68
2023/07/27 00:12:15;;;;;;;17.83;2.58;;;;;;;21.53;100.00;99133.09;5091008;28;20209;-67
2023/07/27 00:14:41;;;;;;;12.88;2.00;;;;;;;21.43;100.00;99137.09;5107569;28;20193;-67
2023/07/27 00:17:09;;;;;;;17.20;2.55;;;;;;;21.35;100.00;99104.91;5114426;28;20236;-67
2023/07/27 00:19:37;;;;;;;18.35;2.65;;;;;;;21.51;100.00;99137.63;5114043;28;20201;-67
2023/07/27 00:22:04;;;;;;;15.80;2.38;;;;;;;21.31;100.00;99117.38;5114462;28;20205;-67
2023/07/27 00:24:30;;;;;;;16.08;2.33;;;;;;;21.27;100.00;99114.03;5062455;28;20194;-67
2023/07/27 00:26:57;;;;;;;21.23;2.85;;;;;;;21.48;100.00;99143.00;5114660;28;20369;-68
2023/07/27 00:29:23;;;;;;;18.60;2.67;;;;;;;21.41;100.00;99141.56;5114270;28;20212;-68
2023/07/27 00:31:50;;;;;;;17.77;2.60;;;;;;;;;;5114557;28;20664;-68
2023/07/27 00:34:17;;;;;;;14.43;2.22;;;;;;;21.44;100.00;99167.81;5099878;28;20209;-67
2023/07/27 00:36:45;;;;;;;16.63;2.63;;;;;;;21.48;100.00;99172.88;5094933;28;20258;-67
2023/07/27 00:39:12;;;;;;;17.73;2.50;;;;;;;21.37;100.00;99177.75;5093686;28;20199;-68
2023/07/27 00:41:40;;;;;;;16.33;2.33;;;;;;;21.48;100.00;99178.16;5093851;28;20289;-69
2023/07/27 00:44:07;;;;;;;19.33;2.67;;;;;;;21.32;100.00;99179.75;5105869;28;20558;-68
2023/07/27 00:46:35;;;;;;;19.15;2.58;;;;;;;21.27;100.00;99171.16;5113880;28;20250;-68
2023/07/27 00:49:02;;;;;;;19.35;2.75;;;;;;;21.32;100.00;99170.97;5114022;28;20197;-68
2023/07/27 00:51:34;;;;;;;21.77;3.00;;;;;;;21.33;100.00;99175.34;5114171;28;20230;-68
2023/07/27 00:54:03;;;;;;;20.10;3.72;;;;;;;21.41;100.00;99186.38;5109876;28;20194;-69
2023/07/27 00:56:30;;;;;;;19.40;2.70;;;;;;;21.27;100.00;99177.31;5093509;28;20194;-68
2023/07/27 00:59:00;;;;;;;19.30;2.60;;;;;;;21.25;100.00;99189.72;5107730;28;20240;-68
2023/07/27 01:01:27;;;;;;;19.20;2.75;;;;;;;21.23;100.00;99175.72;5113805;28;20201;-68
2023/07/27 01:03:54;;;;;;;19.40;2.70;;;;;;;21.18;100.00;99180.34;5113390;28;20202;-68
2023/07/27 01:06:21;;;;;;;21.83;2.95;;;;;;;21.02;100.00;99168.69;5113433;28;20197;-69
2023/07/27 01:08:48;;;;;;;19.73;2.75;;;;;;;21.09;100.00;99175.41;5112818;28;20201;-68
2023/07/27 01:11:26;;;;;;;21.15;2.85;;;;;;;21.25;100.00;99184.44;5113702;28;20202;-69
2023/07/27 01:14:01;;;;;;;19.00;2.65;;;;;;;21.16;100.00;99174.25;5112771;28;20205;-68
2023/07/27 01:16:34;;;;;;;23.38;3.20;;;;;;;21.09;100.00;99187.72;5113647;28;20205;-68
2023/07/27 01:19:11;;;;;;;21.73;2.88;;;;;;;21.04;100.00;99203.75;5113277;28;20690;-68
2023/07/27 01:21:43;;;;;;;19.35;2.70;;;;;;;21.06;100.00;99201.91;5112932;28;20617;-69
2023/07/27 01:24:30;;;;;;;20.75;2.78;;;;;;;20.69;100.00;99154.28;5111764;28;20250;-68
2023/07/27 01:27:19;;;;;;;21.65;2.88;;;;;;;20.98;100.00;99206.63;5113236;28;20229;-68
2023/07/27 01:30:00;;;;;;;24.38;3.22;;;;;;;20.95;100.00;99201.47;5077175;28;20202;-68
2023/07/27 01:32:32;;;;;;;21.08;2.78;;;;;;;20.96;100.00;99203.22;5113021;28;20277;-69
2023/07/27 01:35:01;;;;;;;17.67;2.65;;;;;;;20.91;100.00;99207.78;5112566;28;20197;-68
2023/07/27 01:37:31;;;;;;;17.33;2.60;;;;;;;20.94;100.00;99193.66;5112773;28;20217;-69
2023/07/27 01:40:01;;;;;;;17.85;2.63;;;;;;;20.87;100.00;99187.75;5112991;28;20205;-69
2023/07/27 01:42:30;;;;;;;20.10;2.75;;;;;;;20.73;100.00;99195.38;5112750;28;20193;-68
2023/07/27 01:44:58;;;;;;;16.77;2.35;;;;;;;20.80;100.00;99196.84;5093284;28;20202;-69
2023/07/27 01:47:27;;;;;;;24.50;3.17;;;;;;;20.67;100.00;99216.69;5092274;28;20249;-68
2023/07/27 01:49:55;;;;;;;20.17;2.83;;;;;;;20.78;100.00;99206.59;5092309;28;20698;-68
2023/07/27 01:52:23;;;;;;;20.77;2.95;;;;;;;20.65;100.00;99203.56;5092064;28;20254;-68
2023/07/27 01:54:51;;;;;;;22.95;3.03;;;;;;;20.66;100.00;99221.09;5092199;28;20194;-69
2023/07/27 01:57:19;;;;;;;23.20;3.10;;;;;;;20.60;100.00;99209.97;5091805;28;20688;-68
2023/07/27 01:59:46;;;;;;;17.88;2.63;;;;;;;20.67;100.00;99233.38;5091943;28;20863;-68
2023/07/27 02:02:13;;;;;;;19.88;2.75;;;;;;;20.74;100.00;99226.06;5091519;28;20198;-68
2023/07/27 02:04:40;;;;;;;21.23;2.88;;;;;;;20.58;100.00;99215.28;5108360;28;20672;-68
2023/07/27 02:07:08;;;;;;;17.90;2.58;;;;;;;20.63;100.00;99231.78;5092897;28;20193;-68
2023/07/27 02:09:35;;;;;;;16.17;2.38;;;;;;;20.64;100.00;99227.38;5112215;28;20197;-69
2023/07/27 02:12:11;;;;;;;19.90;2.72;;;;;;;20.68;100.00;99213.16;5112148;28;20212;-68
2023/07/27 02:14:44;;;;;;;18.17;2.65;;;;;;;20.56;100.00;99221.53;5111901;28;20197;-68
2023/07/27 02:17:18;;;;;;;23.40;3.17;;;;;;;20.63;100.00;99230.91;5111870;28;20254;-69
2023/07/27 02:19:45;;;;;;;19.88;2.88;;;;;;;20.37;100.00;99204.75;5112188;28;20559;-68
2023/07/27 02:22:14;;;;;;;19.60;2.72;;;;;;;20.56;100.00;99224.16;5111745;28;20204;-69
2023/07/27 02:24:41;;;;;;;22.25;2.97;;;;;;;20.33;100.00;99206.63;5102114;28;20205;-68
2023/07/27 02:27:08;;;;;;;21.60;2.92;;;;;;;20.43;100.00;99239.59;5091562;28;20294;-69
2023/07/27 02:29:35;;;;;;;21.05;2.90;;;;;;;20.34;100.00;99236.44;5091612;28;20244;-68
2023/07/27 02:32:02;;;;;;;17.48;2.47;;;;;;;20.33;100.00;99232.97;5091540;28;20671;-69
2023/07/27 02:34:28;;;;;;;19.05;2.63;;;;;;;20.38;100.00;99238.03;5091066;28;20205;-68
2023/07/27 02:36:55;;;;;;;22.88;3.03;;;;;;;20.44;100.00;99251.00;5090717;28;20202;-68
2023/07/27 02:39:23;;;;;;;23.10;3.08;;;;;;;20.44;100.00;99258.91;5099918;28;20240;-68
2023/07/27 02:41:50;;;;;;;20.65;3.03;;;;;;;20.32;100.00;99251.44;5102528;28;20189;-68
2023/07/27 02:44:17;;;;;;;20.48;2.72;;;;;;;20.23;100.00;99248.19;5064864;28;20516;-68
2023/07/27 02:46:44;;;;;;;24.13;3.22;;;;;;;20.21;100.00;99255.31;5056598;28;20629;-68
2023/07/27 02:49:10;;;;;;;22.25;3.05;;;;;;;20.15;100.00;99247.66;5094927;28;20665;-68
2023/07/27 02:51:37;;;;;;;17.27;2.35;;;;;;;20.09;100.00;99245.22;5096935;28;20201;-68
2023/07/27 02:54:04;;;;;;;22.25;3.03;;;;;;;20.12;100.00;99244.28;5100513;28;20194;-68
2023/07/27 02:56:32;;;;;;;19.67;2.78;;;;;;;20.17;100.00;99239.69;5100491;28;20206;-68
2023/07/27 02:58:59;;;;;;;21.60;2.90;;;;;;;20.07;100.00;99257.59;5066796;28;20221;-68
2023/07/27 03:01:25;;;;;;;16.08;2.28;;;;;;;20.06;100.00;99237.44;5099803;28;20190;-68
2023/07/27 03:03:53;;;;;;;14.65;2.25;;;;;;;20.14;100.00;99243.28;5100869;28;20254;-68
2023/07/27 03:06:20;;;;;;;14.95;2.25;;;;;;;19.67;100.00;99186.28;5101755;28;20209;-68
2023/07/27 03:08:47;;;;;;;17.13;2.53;;;;;;;20.09;100.00;99262.78;5101055;28;20275;-68
2023/07/27 03:11:14;;;;;;;15.18;2.28;;;;;;;20.04;100.00;99256.84;5104518;28;20225;-68
2023/07/27 03:13:42;;;;;;;20.27;2.72;;;;;;;20.21;100.00;99276.38;5091365;28;20259;-68
2023/07/27 03:16:09;;;;;;;18.73;2.58;;;;;;;20.10;100.00;99273.28;5091095;28;20308;-68
2023/07/27 03:18:35;;;;;;;15.63;2.33;;;;;;;20.17;100.00;99289.69;5090979;28;20229;-68
2023/07/27 03:21:06;;;;;;;15.60;2.22;;;;;;;20.24;100.00;99294.69;5091004;28;20275;-68
2023/07/27 03:23:33;;;;;;;17.58;2.53;;;;;;;20.17;100.00;99303.72;5090960;28;20190;-68
2023/07/27 03:26:00;;;;;;;17.13;2.42;;;;;;;20.21;100.00;99307.09;5091359;28;20284;-68
2023/07/27 03:28:26;;;;;;;13.10;2.00;;;;;;;20.11;100.00;99293.41;5063730;28;20250;-68
2023/07/27 03:30:54;;;;;;;19.00;2.65;;;;;;;20.21;100.00;99301.84;5111219;28;20201;-68
2023/07/27 03:33:21;;;;;;;19.33;2.70;;;;;;;20.11;100.00;99285.53;5106034;28;20206;-69
2023/07/27 03:35:48;;;;;;;21.73;2.88;;;;;;;20.12;100.00;99304.81;5106174;28;20210;-68
2023/07/27 03:38:15;;;;;;;22.27;2.95;;;;;;;20.15;100.00;99300.28;5090265;28;20225;-68
2023/07/27 03:40:41;;;;;;;24.92;3.17;;;;;;;20.34;100.00;99294.34;5090892;28;20197;-69
2023/07/27 03:43:08;;;;;;;22.27;2.97;;;;;;;20.41;100.00;99303.75;5093236;28;20322;-68
2023/07/27 03:45:35;;;;;;;14.07;2.13;;;;;;;20.40;100.00;99288.88;5095965;28;20259;-68
2023/07/27 03:48:04;;;;;;;20.42;2.88;;;;;;;20.48;100.00;99306.09;5057012;28;20201;-68
2023/07/27 03:50:30;;;;;;;16.02;2.35;;;;;;;20.41;100.00;99314.28;5094852;28;20702;-68
2023/07/27 03:52:57;;;;;;;17.98;2.55;;;;;;;20.35;100.00;99318.00;5110137;28;20203;-69
2023/07/27 03:55:24;;;;;;;20.70;2.83;;;;;;;20.37;100.00;99325.88;5107233;28;20208;-68
2023/07/27 03:57:51;;;;;;;17.83;2.53;;;;;;;20.37;100.00;99323.25;5115100;28;20207;-68
2023/07/27 04:00:18;;;;;;;20.45;2.70;;;;;;;20.40;100.00;99323.97;5114918;28;20190;-67
2023/07/27 04:02:44;;;;;;;18.75;2.58;;;;;;;20.24;100.00;99331.53;5096540;28;20210;-68
2023/07/27 04:05:12;;;;;;;16.30;2.40;;;;;;;20.24;100.00;99326.28;5102738;28;20206;-68
2023/07/27 04:07:39;;;;;;;18.33;2.50;;;;;;;19.84;100.00;99260.19;5110707;28;20246;-68
2023/07/27 04:10:06;;;;;;;26.13;3.58;;;;;;;20.23;100.00;99327.19;5114362;28;20189;-69
2023/07/27 04:12:34;;;;;;;18.85;2.58;;;;;;;20.25;100.00;99333.25;5114758;28;20197;-68
2023/07/27 04:15:01;;;;;;;19.27;2.65;;;;;;;20.30;100.00;99334.91;5052684;28;20294;-68
2023/07/27 04:17:27;;;;;;;21.20;2.83;;;;;;;20.32;100.00;99335.69;5094512;28;20266;-67
2023/07/27 04:19:54;;;;;;;23.35;3.25;;;;;;;20.36;100.00;99347.84;5094161;28;20234;-68
2023/07/27 04:22:22;;;;;;;18.35;2.65;;;;;;;20.78;100.00;99354.16;5107247;28;20262;-68
2023/07/27 04:24:50;;;;;;;19.42;2.80;;;;;;;20.95;100.00;99354.34;5104656;28;20227;-68
2023/07/27 04:27:17;;;;;;;20.30;2.92;;;;;;;20.84;100.00;99339.88;5114188;28;20225;-68
2023/07/27 04:29:44;;;;;;;19.73;2.63;;;;;;;20.90;100.00;99360.72;5114471;28;20212;-67
2023/07/27 04:32:10;;;;;;;21.67;3.08;;;;;;;20.73;100.00;99356.09;5114343;28;20224;-68
2023/07/27 04:34:37;;;;;;;17.55;2.50;;;;;;;20.65;100.00;99359.00;5108511;28;20198;-68
2023/07/27 04:37:05;;;;;;;21.45;2.97;;;;;;;20.53;100.00;99353.34;5105754;28;20202;-68
2023/07/27 04:39:33;;;;;;;21.92;2.97;;;;;;;20.60;100.00;99353.06;5114145;28;20230;-68
2023/07/27 04:41:59;;;;;;;21.33;2.92;;;;;;;20.64;100.00;99359.06;5061238;28;20703;-67
2023/07/27 04:44:27;;;;;;;20.05;2.75;;;;;;;20.72;100.00;99359.66;5109382;28;20198;-67
2023/07/27 04:46:53;;;;;;;23.35;3.33;;;;;;;20.70;100.00;99361.47;5041233;28;20706;-67
2023/07/27 04:49:20;;;;;;;19.17;2.85;;;;;;;20.95;100.00;99366.66;5092956;28;20263;-67
2023/07/27 04:51:47;;;;;;;20.95;2.83;;;;;;;20.79;100.00;99363.78;5066176;28;20204;-67
2023/07/27 04:54:14;;;;;;;21.40;2.72;;;;;;;20.82;100.00;99375.97;5105884;28;20198;-68
2023/07/27 04:56:42;;;;;;;22.00;3.03;;;;;;;20.95;100.00;99374.56;5093198;28;20213;-68
2023/07/27 04:59:09;;;;;;;24.77;3.30;;;;;;;21.08;100.00;99396.94;5105880;28;20270;-68
2023/07/27 05:01:35;;;;;;;29.15;3.75;;;;;;;21.01;100.00;99375.19;5093851;28;20267;-68
2023/07/27 05:04:02;;;;;;;27.08;3.40;;;;;;;21.00;100.00;99372.63;5093074;28;20202;-68
2023/07/27 05:06:29;;;;;;;25.15;3.65;;;;;;;21.50;100.00;99399.69;5109784;28;20200;-67
2023/07/27 05:08:55;;;;;;;23.95;3.20;;;;;;;22.42;100.00;99397.53;5107877;28;20254;-68
2023/07/27 05:11:22;;;;;;;22.75;3.08;;;;;;;22.30;100.00;99382.22;5101262;28;20197;-67
2023/07/27 05:13:51;;;;;;;22.92;3.17;;;;;;;22.42;100.00;99398.41;5097969;28;20566;-69
2023/07/27 05:16:18;;;;;;;26.13;3.25;;;;;;;22.83;99.25;99408.94;5103349;28;20728;-68
2023/07/27 05:18:44;;;;;;;22.05;3.00;;;;;;;22.59;98.10;99400.28;5112328;28;20245;-68
2023/07/27 05:21:11;;;;;;;24.20;3.13;;;;;;;22.40;98.65;99391.47;5110878;28;20209;-68
2023/07/27 05:23:38;;;;;;;24.00;3.10;;;;;;;22.34;100.00;99405.81;5097498;28;20578;-67
2023/07/27 05:26:05;;;;;;;24.23;3.20;;;;;;;22.23;100.00;99411.56;5072991;28;20226;-69
2023/07/27 05:28:32;;;;;;;21.95;3.00;;;;;;;22.31;100.00;99410.34;5101763;28;20191;-67
2023/07/27 05:31:00;;;;;;;21.50;2.88;;;;;;;22.17;100.00;99419.75;5093515;28;20589;-68
2023/07/27 05:33:27;;;;;;;20.00;2.75;;;;;;;21.85;100.00;99404.38;5094707;28;20202;-67
2023/07/27 05:35:53;;;;;;;23.17;3.13;;;;;;;21.71;100.00;99428.69;5095579;28;20207;-67
2023/07/27 05:38:21;;;;;;;18.48;2.67;;;;;;;21.66;100.00;99419.22;5101954;28;20258;-67
2023/07/27 05:40:48;;;;;;;19.05;2.70;;;;;;;21.41;100.00;99447.50;5112749;28;20312;-67
2023/07/27 05:43:14;;;;;;;22.17;3.10;;;;;;;21.44;100.00;99447.41;5112250;28;20262;-67
2023/07/27 05:45:41;;;;;;;22.30;3.05;;;;;;;21.40;100.00;99445.81;5102064;28;20209;-68
2023/07/27 05:48:10;;;;;;;24.77;3.47;;;;;;;21.43;100.00;99435.13;5102996;28;20198;-67
2023/07/27 05:50:36;;;;;;;21.48;2.85;;;;;;;21.35;100.00;99434.56;5092546;28;20206;-67
2023/07/27 05:53:05;;;;;;;22.55;3.05;;;;;;;21.40;100.00;99440.53;5091625;28;20197;-67
2023/07/27 05:55:31;;;;;;;20.95;2.80;;;;;;;21.17;100.00;99428.22;5095562;28;20221;-67
2023/07/27 05:57:58;;;;;;;21.40;3.00;;;;;;;21.11;100.00;99428.47;5105593;28;20205;-66
2023/07/27 06:00:26;;;;;;;19.25;2.72;;;;;;;21.29;99.71;99427.78;5098289;28;20233;-66
2023/07/27 06:02:52;;;;;;;18.55;2.58;;;;;;;21.67;97.20;99435.00;5092355;28;20198;-66
2023/07/27 06:05:21;;;;;;;13.80;2.20;;;;;;;21.56;97.01;99425.81;5101479;28;20351;-66
2023/07/27 06:07:47;;;;;;;20.77;2.95;;;;;;;21.45;97.31;99433.28;5106683;28;20266;-66
2023/07/27 06:10:14;;;;;;;18.58;2.65;;;;;;;21.83;95.89;99437.88;5099814;28;20210;-68
2023/07/27 06:12:41;;;;;;;19.90;2.92;;;;;;;22.11;93.80;99433.22;5111794;28;20208;-67
2023/07/27 06:15:09;;;;;;;22.67;3.10;;;;;;;22.43;92.69;99441.53;5060384;28;20229;-67
2023/07/27 06:17:36;;;;;;;17.45;2.47;;;;;;;22.77;93.85;99425.94;5050593;28;20201;-67
2023/07/27 06:20:05;;;;;;;21.23;2.85;;;;;;;22.95;88.64;99425.09;5111749;28;20225;-67
2023/07/27 06:22:33;;;;;;;21.45;2.92;;;;;;;22.92;88.52;99417.31;5112335;28;20732;-67
2023/07/27 06:25:00;;;;;;;21.77;3.38;;;;;;;23.15;88.61;99416.25;5111895;28;20198;-67
2023/07/27 06:27:27;;;;;;;20.88;2.88;;;;;;;22.91;88.08;99396.22;5111838;28;20240;-67
2023/07/27 06:29:53;;;;;;;21.85;2.90;;;;;;;22.63;88.45;99417.72;5059177;28;20204;-67
2023/07/27 06:32:20;;;;;;;21.45;2.88;;;;;;;22.44;89.38;99414.19;5112007;28;20202;-67
2023/07/27 06:34:47;;;;;;;22.00;2.97;;;;;;;21.54;87.38;99430.28;5059607;28;20224;-68
2023/07/27 06:37:14;;;;;;;21.30;2.85;;;;;;;21.73;88.91;99431.25;5111761;28;20201;-67
2023/07/27 06:39:43;;;;;;;19.67;2.92;;;;;;;21.70;89.14;99431.38;5111699;28;20246;-67
2023/07/27 06:42:12;;;;;;;23.45;3.20;;;;;;;21.68;90.64;99442.00;5111657;28;20247;-67
2023/07/27 06:44:39;;;;;;;20.85;2.85;;;;;;;22.10;89.34;99444.69;5111490;28;20202;-67
2023/07/27 06:47:06;;;;;;;20.25;2.80;;;;;;;22.32;88.08;99443.78;5059311;28;20269;-67
2023/07/27 06:49:33;;;;;;;18.98;2.88;;;;;;;22.20;88.27;99440.75;5111330;28;20263;-67
2023/07/27 06:52:00;;;;;;;25.08;3.33;;;;;;;22.33;89.97;99435.78;5111536;28;20288;-67
2023/07/27 06:54:27;;;;;;;23.92;3.00;;;;;;;22.24;90.01;99446.75;5111273;28;20200;-67
2023/07/27 06:56:55;;;;;;;20.30;2.85;;;;;;;22.23;89.82;99456.44;5111262;28;20193;-67
2023/07/27 06:59:22;;;;;;;20.00;2.78;;;;;;;22.18;87.92;99478.72;5075297;28;20298;-68
2023/07/27 07:01:48;;;;;;;19.58;2.80;;;;;;;22.11;86.58;99471.97;5111071;28;20599;-68
2023/07/27 07:04:15;;;;;;;18.75;2.78;;;;;;;22.14;85.22;99469.19;5111432;28;20289;-66
2023/07/27 07:06:42;;;;;;;22.58;3.03;;;;;;;21.95;86.02;99482.28;5111203;28;20193;-66
2023/07/27 07:09:11;;;;;;;21.02;2.85;;;;;;;21.66;88.19;99422.72;5111248;28;20197;-67
2023/07/27 07:11:37;;;;;;;23.70;3.20;;;;;;;21.89;88.72;99460.53;5110926;28;20662;-66
2023/07/27 07:14:06;;;;;;;18.50;2.65;;;;;;;22.23;87.14;99488.13;5111071;28;20660;-67
2023/07/27 07:16:32;;;;;;;21.10;2.85;;;;;;;21.98;87.92;99491.84;5111343;28;20208;-67
2023/07/27 07:18:59;;;;;;;23.30;3.15;;;;;;;21.92;87.76;99489.47;5110969;28;20216;-66
2023/07/27 07:21:26;;;;;;;21.15;3.13;;;;;;;21.98;87.19;99513.84;5110873;28;20667;-66
2023/07/27 07:23:53;;;;;;;22.48;3.15;;;;;;;22.04;86.64;99508.31;5110952;28;20212;-66
2023/07/27 07:26:19;;;;;;;23.17;3.03;;;;;;;21.97;87.24;99525.34;5111157;28;20236;-68
2023/07/27 07:28:46;;;;;;;20.27;2.88;;;;;;;22.04;88.30;99523.31;5110790;28;20204;-66
2023/07/27 07:31:14;;;;;;;19.88;2.78;;;;;;;22.22;88.03;99518.09;5111138;28;20671;-66
2023/07/27 07:33:41;;;;;;;19.23;2.63;;;;;;;22.36;87.13;99524.63;5110922;28;20201;-67
2023/07/27 07:36:08;;;;;;;19.67;2.78;;;;;;;22.24;86.62;99532.13;5111070;28;20202;-66
2023/07/27 07:38:35;;;;;;;20.00;2.85;;;;;;;22.15;84.72;99529.84;5110886;28;20224;-66
2023/07/27 07:41:01;;;;;;;17.52;2.53;;;;;;;22.09;84.68;99532.75;5110780;28;20298;-67
2023/07/27 07:43:28;;;;;;;23.13;3.03;;;;;;;22.18;86.37;99511.25;5110869;28;20205;-67
2023/07/27 07:45:55;;;;;;;15.10;2.17;;;;;;;22.16;86.31;99510.44;5110836;28;20220;-69
2023/07/27 07:48:23;;;;;;;21.63;2.92;;;;;;;22.00;87.93;99516.44;5058686;28;20243;-66
2023/07/27 07:50:51;;;;;;;21.75;2.97;;;;;;;21.91;87.91;99516.78;5110776;28;20197;-66
2023/07/27 07:53:18;;;;;;;18.52;2.70;;;;;;;21.73;89.56;99515.69;5058818;28;20189;-67
2023/07/27 07:55:44;;;;;;;21.98;3.03;;;;;;;21.62;90.96;99479.19;5110715;28;20208;-65
2023/07/27 07:58:11;;;;;;;24.25;3.20;;;;;;;21.81;91.35;99512.75;5110554;28;20204;-66
2023/07/27 08:00:38;;;;;;;18.60;2.63;;;;;;;21.66;90.74;99514.22;5110535;28;20229;-67
2023/07/27 08:03:05;;;;;;;24.35;3.25;;;;;;;21.59;92.81;99531.22;5110765;28;20699;-66
2023/07/27 08:05:33;;;;;;;21.35;3.90;;;;;;;21.66;91.91;99527.41;5110572;28;20505;-66
2023/07/27 08:08:00;;;;;;;17.42;2.55;;;;;;;21.86;91.11;99535.44;5110554;28;20197;-67
2023/07/27 08:10:27;;;;;;;19.17;2.65;;;;;;;22.02;91.25;99539.19;5110571;28;20206;-67
2023/07/27 08:12:53;;;;;;;19.02;2.80;;;;;;;21.92;88.72;99534.34;5110742;28;20224;-67
2023/07/27 08:15:20;;;;;;;23.05;3.53;;;;;;;21.51;89.96;99549.13;5110651;28;20604;-67
2023/07/27 08:17:47;;;;;;;21.40;2.88;;;;;;;21.76;90.42;99521.72;5110588;28;20197;-67
2023/07/27 08:20:14;;;;;;;18.85;2.67;;;;;;;21.85;90.53;99517.88;5110477;28;20221;-66
2023/07/27 08:22:42;;;;;;;21.40;2.85;;;;;;;21.94;89.73;99514.88;5110291;28;20206;-66
2023/07/27 08:25:09;;;;;;;11.27;1.83;;;;;;;21.99;88.42;99512.94;5110288;28;20197;-67
2023/07/27 08:27:36;;;;;;;22.08;3.13;;;;;;;22.32;87.67;99525.66;5110642;28;20237;-66
2023/07/27 08:30:04;;;;;;;21.73;2.88;;;;;;;22.47;87.25;99515.31;5110488;28;20208;-66
2023/07/27 08:32:31;;;;;;;22.77;3.03;;;;;;;22.46;86.25;99526.81;5074849;28;20201;-66
2023/07/27 08:34:57;;;;;;;22.08;3.03;;;;;;;22.62;86.49;99534.94;5113578;28;20204;-68
2023/07/27 08:37:24;;;;;;;18.70;2.60;;;;;;;22.61;84.92;99527.94;5114267;28;20197;-68
2023/07/27 08:39:52;;;;;;;18.58;2.63;;;;;;;22.58;85.34;99530.72;5113955;28;20428;-67
2023/07/27 08:42:19;;;;;;;21.60;2.95;;;;;;;22.46;84.54;99541.81;5114015;28;20294;-65
2023/07/27 08:44:47;;;;;;;23.15;3.10;;;;;;;22.41;84.39;99528.78;5113824;28;20197;-67
2023/07/27 08:47:15;;;;;;;20.40;2.90;;;;;;;22.59;85.80;99503.34;5113981;28;20296;-67
2023/07/27 08:49:44;;;;;;;19.88;2.63;;;;;;;22.55;84.65;99493.84;5061150;28;20193;-68
2023/07/27 08:52:13;;;;;;;23.75;3.13;;;;;;;22.71;85.12;99521.38;5113651;28;20213;-67
2023/07/27 08:54:40;;;;;;;17.10;2.38;;;;;;;22.59;86.03;99521.84;5113757;28;20229;-67
2023/07/27 08:57:08;;;;;;;19.75;2.70;;;;;;;22.74;86.25;99513.31;5113550;28;20254;-67
2023/07/27 08:59:36;;;;;;;14.82;2.20;;;;;;;22.51;85.06;99510.78;5113636;28;20216;-68
2023/07/27 09:02:02;;;;;;;31.17;3.92;;;;;;;22.70;87.22;99515.22;5111537;28;20212;-67
2023/07/27 09:04:29;;;;;;;17.55;2.55;;;;;;;22.56;85.59;99498.19;5106112;28;20206;-67
2023/07/27 09:06:56;;;;;;;20.90;2.85;;;;;;;22.62;85.99;99501.44;5102056;28;20610;-66
2023/07/27 09:09:25;;;;;;;22.48;2.95;;;;;;;22.76;85.14;99506.16;5111807;28;20205;-68
2023/07/27 09:11:52;;;;;;;21.40;2.85;;;;;;;22.88;84.48;99497.69;5106916;28;20201;-68
2023/07/27 09:14:20;;;;;;;21.80;2.95;;;;;;;23.03;84.14;99502.31;5099792;28;20736;-68
2023/07/27 09:16:47;;;;;;;14.57;2.15;;;;;;;22.84;84.23;99501.38;5060741;28;20284;-69
2023/07/27 09:19:17;;;;;;;21.20;2.92;;;;;;;23.15;83.16;99496.44;5077345;28;20197;-68
2023/07/27 09:21:45;;;;;;;25.25;3.22;;;;;;;23.56;81.60;99491.06;5100938;28;20222;-68
2023/07/27 09:24:13;;;;;;;23.20;3.08;;;;;;;24.05;81.70;99494.84;5096743;28;20208;-67
2023/07/27 09:26:51;;;;;;;23.27;3.03;;;;;;;24.02;78.91;99487.91;5102315;28;20229;-67
2023/07/27 09:29:21;;;;;;;26.05;3.22;;;;;;;23.87;81.30;99495.72;5096370;28;20209;-66
2023/07/27 09:31:50;;;;;;;28.48;3.50;;;;;;;23.99;80.50;99485.41;5112566;28;20208;-67
2023/07/27 09:34:17;;;;;;;21.95;2.90;;;;;;;23.94;79.72;99521.84;5098336;28;20664;-68
2023/07/27 09:36:44;;;;;;;22.08;2.83;;;;;;;24.09;79.17;99509.66;5112090;28;20205;-67
2023/07/27 09:39:11;;;;;;;20.25;2.72;;;;;;;23.87;78.61;99523.06;5097334;28;20676;-67
2023/07/27 09:41:38;;;;;;;23.77;3.13;;;;;;;23.72;80.16;99513.22;5092017;28;20238;-66
2023/07/27 09:44:05;;;;;;;24.60;3.20;;;;;;;23.72;79.29;99513.22;5091995;28;20208;-66
2023/07/27 09:46:33;;;;;;;20.65;2.70;;;;;;;23.84;78.54;99517.94;5091883;28;20634;-67
2023/07/27 09:49:00;;;;;;;20.13;2.72;;;;;;;23.93;78.48;99520.16;5091971;28;20205;-67
2023/07/27 09:51:28;;;;;;;24.67;3.03;;;;;;;24.16;77.64;99540.22;5092071;28;20217;-66
2023/07/27 09:53:55;;;;;;;20.20;2.70;;;;;;;24.78;76.04;99521.16;5091946;28;20606;-67
2023/07/27 09:56:22;;;;;;;21.23;2.90;;;;;;;25.06;71.99;99540.03;5106076;28;20201;-66
2023/07/27 09:58:49;;;;;;;22.50;3.00;;;;;;;25.12;71.48;99523.78;5092010;28;20209;-67
2023/07/27 10:01:16;;;;;;;25.63;3.22;;;;;;;24.87;72.59;99510.09;5092317;28;20226;-67
2023/07/27 10:03:45;;;;;;;24.25;3.15;;;;;;;24.63;73.03;99535.22;5092190;28;20232;-67
2023/07/27 10:06:15;;;;;;;24.02;3.05;;;;;;;24.63;74.77;99536.06;5092112;28;20198;-67
2023/07/27 10:08:43;;;;;;;24.73;3.08;;;;;;;24.45;74.47;99523.75;5091898;28;20242;-68
2023/07/27 10:11:10;;;;;;;20.50;2.65;;;;;;;24.40;74.61;99523.09;5091980;28;20688;-67
2023/07/27 10:13:39;;;;;;;24.60;3.13;;;;;;;24.48;74.69;99522.72;5056564;28;20237;-67
2023/07/27 10:16:10;;;;;;;22.55;2.97;;;;;;;24.85;72.96;99519.94;5092048;28;20229;-67
2023/07/27 10:18:41;;;;;;;20.00;2.75;;;;;;;24.82;72.09;99513.91;5091939;28;20198;-67
2023/07/27 10:21:24;;;;;;;21.05;2.83;;;;;;;24.93;71.88;99538.13;5091671;28;20268;-68
2023/07/27 10:23:57;;;;;;;22.40;2.92;;;;;;;24.58;71.00;99547.81;5091452;28;20241;-67
2023/07/27 10:26:50;;;;;;;18.75;2.65;;;;;;;24.77;73.42;99538.00;5036116;28;20226;-67
2023/07/27 10:29:19;;;;;;;21.75;2.83;;;;;;;24.81;72.29;99539.56;5071275;28;20194;-67
2023/07/27 10:31:47;;;;;;;22.45;2.90;;;;;;;25.21;70.82;99527.75;5071316;28;20198;-66
2023/07/27 10:34:16;;;;;;;22.55;3.03;;;;;;;25.01;68.60;99510.22;5071319;28;20197;-67
2023/07/27 10:36:57;;;;;;;22.83;2.95;;;;;;;25.52;67.98;99526.97;5071309;28;20195;-66
2023/07/27 10:39:27;;;;;;;16.85;2.40;;;;;;;25.18;67.46;99520.78;5071201;28;20277;-68
2023/07/27 10:42:06;;;;;;;19.98;2.60;;;;;;;24.89;66.91;99457.84;5071132;28;20230;-67
2023/07/27 10:44:51;;;;;;;23.13;2.97;;;;;;;25.49;66.38;99501.41;5070985;28;20190;-67
2023/07/27 10:47:22;;;;;;;21.63;2.85;;;;;;;25.29;63.09;99498.16;5070918;28;20202;-68
2023/07/27 10:49:51;;;;;;;24.27;3.03;;;;;;;25.47;64.41;99502.47;5071015;28;20597;-67
2023/07/27 10:52:20;;;;;;;20.25;2.67;;;;;;;25.78;61.74;99491.88;5035441;28;20198;-66
2023/07/27 10:54:48;;;;;;;22.00;2.92;;;;;;;25.86;59.32;99497.59;5070771;28;20207;-67
2023/07/27 10:57:17;;;;;;;23.08;3.25;;;;;;;25.88;58.58;99465.63;5070234;28;20228;-66
2023/07/27 10:59:46;;;;;;;27.08;3.35;;;;;;;26.13;57.69;99485.38;5070686;28;20195;-67
2023/07/27 11:02:16;;;;;;;20.90;2.70;;;;;;;26.14;60.01;99491.56;5035447;28;20336;-67
2023/07/27 11:04:43;;;;;;;23.52;3.05;;;;;;;25.94;57.58;99479.41;5070860;28;20199;-66
2023/07/27 11:07:11;;;;;;;20.20;2.65;;;;;;;26.10;59.61;99490.03;5070649;28;20210;-68
2023/07/27 11:09:46;;;;;;;23.33;3.05;;;;;;;26.05;57.13;99482.31;5070516;28;20199;-67
2023/07/27 11:12:12;;;;;;;19.65;2.53;;;;;;;26.18;57.40;99500.25;5070824;28;20251;-68
2023/07/27 11:14:39;;;;;;;21.63;2.90;;;;;;;26.08;57.70;99483.91;5070658;28;20221;-67
2023/07/27 11:17:06;;;;;;;16.23;2.28;;;;;;;26.21;55.51;99489.44;5035572;28;20605;-67
2023/07/27 11:19:33;;;;;;;22.33;2.90;;;;;;;26.18;54.71;99486.94;5070491;28;20577;-67
2023/07/27 11:22:00;;;;;;;17.42;2.35;;;;;;;26.35;55.42;99471.72;5070619;28;20258;-67
2023/07/27 11:24:27;;;;;;;20.48;2.78;;;;;;;26.83;54.76;99467.94;5070629;28;20214;-67
2023/07/27 11:26:56;;;;;;;23.42;3.00;;;;;;;26.81;54.30;99479.59;5035310;28;20226;-67